createdAt,value
2022-09-25T00:00:25.554Z,25.00
2022-09-25T00:02:34.272Z,25.10
2022-09-25T00:04:41.467Z,25.10
2022-09-25T00:07:00.720Z,25.10
2022-09-25T00:09:22.868Z,25.10
2022-09-25T00:11:41.963Z,25.10
2022-09-25T00:14:02.941Z,25.10
2022-09-25T00:16:12.358Z,25.10
2022-09-25T00:18:42.163Z,25.10
2022-09-25T00:20:49.041Z,25.10
2022-09-25T00:22:56.137Z,25.10
2022-09-25T00:25:16.609Z,25.20
2022-09-25T00:27:23.590Z,25.20
2022-09-25T00:29:44.440Z,25.20
2022-09-25T00:32:04.322Z,25.20
2022-09-25T00:34:25.178Z,25.20
2022-09-25T00:36:44.335Z,25.30
2022-09-25T00:38:51.830Z,25.30
2022-09-25T00:41:11.804Z,25.30
2022-09-25T00:43:36.393Z,25.40
2022-09-25T00:45:55.904Z,25.40
2022-09-25T00:48:18.565Z,25.50
2022-09-25T00:50:42.238Z,25.50
2022-09-25T00:53:06.461Z,25.60
2022-09-25T00:55:26.341Z,25.60
2022-09-25T00:57:36.594Z,25.60
2022-09-25T01:00:00.565Z,25.60
2022-09-25T01:02:08.102Z,25.60
2022-09-25T01:04:27.628Z,25.70
2022-09-25T01:06:36.960Z,25.70
2022-09-25T01:08:44.921Z,25.70
2022-09-25T01:11:04.536Z,25.80
2022-09-25T01:13:24.719Z,25.90
2022-09-25T01:15:40.093Z,25.90
2022-09-25T01:18:09.290Z,25.90
2022-09-25T01:20:28.360Z,25.90
2022-09-25T01:23:07.027Z,26.00
2022-09-25T01:25:37.602Z,26.00
2022-09-25T01:28:12.073Z,26.00
2022-09-25T01:30:22.543Z,26.10
2022-09-25T01:32:53.263Z,26.10
2022-09-25T01:35:19.756Z,26.10
2022-09-25T01:37:32.623Z,26.10
2022-09-25T01:39:44.827Z,26.10
2022-09-25T01:41:56.089Z,26.10
2022-09-25T01:44:20.170Z,26.10
2022-09-25T01:46:45.953Z,26.20
2022-09-25T01:49:14.118Z,26.10
2022-09-25T01:51:25.189Z,26.10
2022-09-25T01:53:37.994Z,26.10
2022-09-25T01:56:00.844Z,26.10
2022-09-25T01:58:25.846Z,26.10
2022-09-25T02:00:48.661Z,26.10
2022-09-25T02:03:16.967Z,26.10
2022-09-25T02:05:28.143Z,26.10
2022-09-25T02:07:51.810Z,26.10
2022-09-25T02:10:15.994Z,26.10
2022-09-25T02:12:38.226Z,26.10
2022-09-25T02:14:49.298Z,26.10
2022-09-25T02:17:00.243Z,26.10
2022-09-25T02:19:38.487Z,26.10
2022-09-25T02:22:06.399Z,26.20
2022-09-25T02:24:23.072Z,26.20
2022-09-25T02:26:32.382Z,26.20
2022-09-25T02:48:31.139Z,26.10
2022-09-25T02:50:59.203Z,26.80
2022-09-25T02:53:12.164Z,26.70
2022-09-25T02:55:38.144Z,26.60
2022-09-25T02:57:50.446Z,26.50
2022-09-25T03:00:11.961Z,26.50
2022-09-25T03:02:20.775Z,26.50
2022-09-25T03:04:42.459Z,26.50
2022-09-25T03:07:01.205Z,26.50
2022-09-25T03:09:23.744Z,26.40
2022-09-25T03:11:44.405Z,26.40
2022-09-25T03:14:00.043Z,26.40
2022-09-25T03:16:11.562Z,26.30
2022-09-25T03:18:19.398Z,26.30
2022-09-25T03:20:40.612Z,26.20
2022-09-25T03:22:59.772Z,26.10
2022-09-25T03:25:19.395Z,26.10
2022-09-25T03:27:38.454Z,26.00
2022-09-25T03:29:58.242Z,26.00
2022-09-25T03:32:17.300Z,25.90
2022-09-25T03:34:24.535Z,25.90
2022-09-25T03:36:35.246Z,26.00
2022-09-25T03:38:59.006Z,26.00
2022-09-25T03:41:09.948Z,26.10
2022-09-25T03:43:16.815Z,26.10
2022-09-25T03:45:23.883Z,26.20
2022-09-25T03:47:43.461Z,26.20
2022-09-25T03:49:50.489Z,26.30
2022-09-25T03:52:01.411Z,26.30
2022-09-25T03:54:20.464Z,26.40
2022-09-25T03:56:30.823Z,26.40
2022-09-25T03:58:50.595Z,26.50
2022-09-25T04:01:12.118Z,26.50
2022-09-25T04:03:19.455Z,26.60
2022-09-25T04:05:26.478Z,26.60
2022-09-25T04:07:35.299Z,26.60
2022-09-25T04:09:42.376Z,26.60
2022-09-25T04:12:01.505Z,26.70
2022-09-25T04:14:08.880Z,26.90
2022-09-25T04:16:17.266Z,26.90
2022-09-25T04:18:36.909Z,26.90
2022-09-25T04:20:44.195Z,26.90
2022-09-25T04:22:53.009Z,27.00
2022-09-25T04:25:12.996Z,27.00
2022-09-25T04:27:32.221Z,27.10
2022-09-25T04:29:39.446Z,27.10
2022-09-25T04:32:11.677Z,27.10
2022-09-25T04:34:18.891Z,27.20
2022-09-25T04:36:38.057Z,27.10
2022-09-25T04:38:46.872Z,27.10
2022-09-25T04:40:53.786Z,27.00
2022-09-25T04:43:01.654Z,27.00
2022-09-25T04:45:21.068Z,27.00
2022-09-25T04:47:40.338Z,27.10
2022-09-25T04:49:59.547Z,27.10
2022-09-25T04:52:07.307Z,27.20
2022-09-25T04:54:17.399Z,27.30
2022-09-25T04:56:36.603Z,27.50
2022-09-25T04:58:56.340Z,27.70
2022-09-25T05:01:07.398Z,28.00
2022-09-25T05:03:26.887Z,28.10
2022-09-25T05:05:35.108Z,28.10
2022-09-25T05:07:42.357Z,28.10
2022-09-25T05:09:51.077Z,28.20
2022-09-25T05:12:10.711Z,28.40
2022-09-25T05:14:32.177Z,28.50
2022-09-25T05:16:39.346Z,28.70
2022-09-25T05:18:58.590Z,28.80
2022-09-25T05:21:08.363Z,29.00
2022-09-25T05:23:15.330Z,29.10
2022-09-25T05:25:24.561Z,29.10
2022-09-25T05:27:31.489Z,29.20
2022-09-25T05:29:39.547Z,29.20
2022-09-25T05:31:49.189Z,29.20
2022-09-25T05:33:56.668Z,29.20
2022-09-25T05:36:05.249Z,29.20
2022-09-25T05:38:24.565Z,29.10
2022-09-25T05:40:45.693Z,29.00
2022-09-25T05:43:06.865Z,28.90
2022-09-25T05:45:14.819Z,28.90
2022-09-25T05:47:34.346Z,28.90
2022-09-25T05:49:41.417Z,29.00
2022-09-25T05:52:00.796Z,29.00
2022-09-25T05:54:07.918Z,28.90
2022-09-25T05:56:18.537Z,28.90
2022-09-25T05:58:25.933Z,29.00
2022-09-25T06:00:46.456Z,29.20
2022-09-25T06:02:56.559Z,29.20
2022-09-25T06:05:15.904Z,29.20
2022-09-25T06:07:22.955Z,29.10
2022-09-25T06:09:30.144Z,29.10
2022-09-25T06:11:52.519Z,29.00
2022-09-25T06:14:13.491Z,29.00
2022-09-25T06:16:32.631Z,29.10
2022-09-25T06:18:52.263Z,29.20
2022-09-25T06:21:05.081Z,29.40
2022-09-25T06:23:12.019Z,29.50
2022-09-25T06:25:19.185Z,29.60
2022-09-25T06:27:28.463Z,29.70
2022-09-25T06:29:47.165Z,29.70
2022-09-25T06:31:55.116Z,29.70
2022-09-25T06:34:02.302Z,29.70
2022-09-25T06:36:10.197Z,29.70
2022-09-25T06:38:29.521Z,29.70
2022-09-25T06:40:39.188Z,29.60
2022-09-25T06:42:48.082Z,29.50
2022-09-25T06:45:08.574Z,29.30
2022-09-25T06:47:19.101Z,29.10
2022-09-25T06:49:39.676Z,29.10
2022-09-25T06:51:46.708Z,29.20
2022-09-25T06:53:57.262Z,29.20
2022-09-25T06:56:04.648Z,29.30
2022-09-25T06:58:27.911Z,29.30
2022-09-25T07:00:35.648Z,29.20
2022-09-25T07:02:59.379Z,29.20
2022-09-25T07:05:20.014Z,29.10
2022-09-25T07:07:39.300Z,29.00
2022-09-25T07:09:46.361Z,29.00
2022-09-25T07:12:08.289Z,28.90
2022-09-25T07:14:29.250Z,28.80
2022-09-25T07:16:49.127Z,28.80
2022-09-25T07:19:08.540Z,28.70
2022-09-25T07:21:30.748Z,28.60
2022-09-25T07:23:38.068Z,28.50
2022-09-25T07:25:57.528Z,28.40
2022-09-25T07:28:04.614Z,28.30
2022-09-25T07:30:15.529Z,28.20
2022-09-25T07:32:22.655Z,28.10
2022-09-25T07:34:30.043Z,27.90
2022-09-25T07:36:49.161Z,27.80
2022-09-25T07:38:57.208Z,27.60
2022-09-25T07:41:16.982Z,27.40
2022-09-25T07:43:24.219Z,27.10
2022-09-25T07:45:33.094Z,26.90
2022-09-25T07:47:52.559Z,26.50
2022-09-25T07:50:15.502Z,26.20
2022-09-25T07:52:35.549Z,26.00
2022-09-25T07:54:42.467Z,26.00
2022-09-25T07:56:49.910Z,26.00
2022-09-25T07:59:09.224Z,25.90
2022-09-25T08:01:30.400Z,25.80
2022-09-25T08:03:37.714Z,25.70
2022-09-25T08:06:02.408Z,25.80
2022-09-25T08:08:09.486Z,25.90
2022-09-25T08:10:28.805Z,25.90
2022-09-25T08:12:35.948Z,25.90
2022-09-25T08:14:42.849Z,26.00
2022-09-25T08:17:03.771Z,26.00
2022-09-25T08:19:24.372Z,26.00
2022-09-25T08:21:43.776Z,25.90
2022-09-25T08:24:02.734Z,26.00
2022-09-25T08:26:10.076Z,26.00
2022-09-25T08:28:29.641Z,25.90
2022-09-25T08:30:36.791Z,25.90
2022-09-25T08:32:57.880Z,25.80
2022-09-25T08:35:17.095Z,25.70
2022-09-25T08:37:24.129Z,25.70
2022-09-25T08:39:43.540Z,25.60
2022-09-25T08:41:55.031Z,25.40
2022-09-25T08:44:27.071Z,25.40
2022-09-25T08:47:06.167Z,25.30
2022-09-25T08:49:16.181Z,25.30
2022-09-25T08:51:37.223Z,25.30
2022-09-25T08:53:47.272Z,25.30
2022-09-25T08:56:20.366Z,25.30
2022-09-25T08:58:29.802Z,25.30
2022-09-25T09:00:36.826Z,25.20
2022-09-25T09:02:58.290Z,25.20
2022-09-25T09:05:25.548Z,25.20
2022-09-25T09:07:38.252Z,25.20
2022-09-25T09:10:03.933Z,25.20
2022-09-25T09:12:15.501Z,25.10
2022-09-25T09:14:24.697Z,25.20
2022-09-25T09:16:37.654Z,25.30
2022-09-25T09:18:45.957Z,25.40
2022-09-25T09:21:13.471Z,25.40
2022-09-25T09:23:37.951Z,25.50
2022-09-25T09:25:54.196Z,25.50
2022-09-25T09:28:23.863Z,25.40
2022-09-25T09:30:38.051Z,25.50
2022-09-25T09:33:30.603Z,25.50
2022-09-25T09:35:53.955Z,25.40
2022-09-25T09:38:13.991Z,25.40
2022-09-25T09:40:38.671Z,25.40
2022-09-25T09:43:08.087Z,25.40
2022-09-25T09:45:21.768Z,25.40
2022-09-25T09:47:40.675Z,25.50
2022-09-25T09:50:04.853Z,25.50
2022-09-25T09:52:18.434Z,25.50
2022-09-25T09:54:44.156Z,25.50
2022-09-25T09:56:53.236Z,25.50
2022-09-25T09:59:02.887Z,25.50
2022-09-25T10:01:28.921Z,25.50
2022-09-25T10:03:55.130Z,25.50
2022-09-25T10:06:02.920Z,25.50
2022-09-25T10:08:22.440Z,25.60
2022-09-25T10:10:38.541Z,25.50
2022-09-25T10:13:04.220Z,25.60
2022-09-25T10:15:22.549Z,25.60
2022-09-25T10:17:31.476Z,25.60
2022-09-25T10:19:47.354Z,25.60
2022-09-25T10:21:58.569Z,25.60
2022-09-25T10:24:54.493Z,25.50
2022-09-25T10:27:36.965Z,25.40
2022-09-25T10:29:43.932Z,25.30
2022-09-25T10:31:51.519Z,25.30
2022-09-25T10:34:21.130Z,25.30
2022-09-25T10:36:43.370Z,25.30
2022-09-25T10:39:24.447Z,25.20
2022-09-25T10:41:34.031Z,25.20
2022-09-25T10:44:01.251Z,25.20
2022-09-25T10:46:38.547Z,25.10
2022-09-25T10:49:37.211Z,25.10
2022-09-25T10:52:07.034Z,25.10
2022-09-25T10:54:26.281Z,25.10
2022-09-25T10:56:40.025Z,25.00
2022-09-25T10:58:51.409Z,24.90
2022-09-25T11:01:02.782Z,24.80
2022-09-25T11:03:16.838Z,24.80
2022-09-25T11:05:38.652Z,24.80
2022-09-25T11:08:01.141Z,24.80
2022-09-25T11:10:24.453Z,24.80
2022-09-25T11:12:32.187Z,24.80
2022-09-25T11:15:00.375Z,24.80
2022-09-25T11:17:36.899Z,24.80
2022-09-25T11:19:43.959Z,24.80
2022-09-25T11:22:27.145Z,24.70
2022-09-25T11:25:01.485Z,24.70
2022-09-25T11:27:14.935Z,24.70
2022-09-25T11:29:45.416Z,24.60
2022-09-25T11:32:13.637Z,24.60
2022-09-25T11:34:36.021Z,24.60
2022-09-25T11:36:47.668Z,24.60
2022-09-25T11:39:14.352Z,24.70
2022-09-25T11:41:42.063Z,24.70
2022-09-25T11:44:26.672Z,24.70
2022-09-25T11:46:40.455Z,24.80
2022-09-25T11:49:12.929Z,24.80
2022-09-25T11:51:55.562Z,24.90
2022-09-25T11:54:33.630Z,24.80
2022-09-25T11:56:59.727Z,24.80
2022-09-25T11:59:25.802Z,24.80
2022-09-25T12:01:50.149Z,24.80
2022-09-25T12:04:41.461Z,24.80
2022-09-25T12:07:31.281Z,24.80
2022-09-25T12:10:06.782Z,24.90
2022-09-25T12:12:33.430Z,24.80
2022-09-25T12:14:49.195Z,24.80
2022-09-25T12:17:14.574Z,24.80
2022-09-25T12:19:30.658Z,24.70
2022-09-25T12:21:55.546Z,24.70
2022-09-25T12:24:11.737Z,24.80
2022-09-25T12:26:27.117Z,24.70
2022-09-25T12:28:42.997Z,24.80
2022-09-25T12:31:03.447Z,24.80
2022-09-25T12:33:36.893Z,24.80
2022-09-25T12:35:50.468Z,24.80
2022-09-25T12:38:17.257Z,24.80
2022-09-25T12:40:44.718Z,24.90
2022-09-25T12:42:59.019Z,24.90
2022-09-25T12:45:14.490Z,24.90
2022-09-25T12:47:29.196Z,24.90
2022-09-25T12:49:53.077Z,25.00
2022-09-25T12:52:15.866Z,25.00
2022-09-25T12:54:39.998Z,25.00
2022-09-25T12:56:53.785Z,25.10
2022-09-25T12:59:16.839Z,25.00
2022-09-25T13:01:46.609Z,25.00
2022-09-25T13:04:01.612Z,25.00
2022-09-25T13:06:28.407Z,25.10
2022-09-25T13:08:42.853Z,25.10
2022-09-25T13:11:08.216Z,25.10
2022-09-25T13:13:20.936Z,25.10
2022-09-25T13:15:43.527Z,25.10
2022-09-25T13:17:50.811Z,25.10
2022-09-25T13:20:46.420Z,25.10
2022-09-25T13:22:53.504Z,25.00
2022-09-25T13:25:06.725Z,25.00
2022-09-25T13:27:23.341Z,25.00
2022-09-25T13:29:44.604Z,25.00
2022-09-25T13:32:09.840Z,25.00
2022-09-25T13:34:29.421Z,25.00
2022-09-25T13:36:52.263Z,24.90
2022-09-25T13:39:40.826Z,24.90
2022-09-25T13:42:01.103Z,24.90
2022-09-25T13:44:51.369Z,24.90
2022-09-25T13:47:39.537Z,24.90
2022-09-25T13:49:54.194Z,24.90
2022-09-25T13:52:01.178Z,24.90
2022-09-25T13:54:29.708Z,24.90
2022-09-25T13:56:57.479Z,24.90
2022-09-25T13:59:22.823Z,25.00
2022-09-25T14:01:46.945Z,24.90
2022-09-25T14:04:13.845Z,24.90
2022-09-25T14:06:38.912Z,24.90
2022-09-25T14:08:47.670Z,24.80
2022-09-25T14:11:08.414Z,24.90
2022-09-25T14:13:29.067Z,24.90
2022-09-25T14:15:38.712Z,24.80
2022-09-25T14:17:48.344Z,24.80
2022-09-25T14:19:58.921Z,24.90
2022-09-25T14:22:08.698Z,24.90
2022-09-25T14:24:31.709Z,24.90
2022-09-25T14:26:53.319Z,24.90
2022-09-25T14:29:20.055Z,24.90
2022-09-25T14:31:48.178Z,24.90
2022-09-25T14:34:49.274Z,24.90
2022-09-25T14:37:22.508Z,24.90
2022-09-25T14:39:40.354Z,24.90
2022-09-25T14:42:33.973Z,24.90
2022-09-25T14:45:25.082Z,24.90
2022-09-25T14:47:46.598Z,24.90
2022-09-25T14:49:56.918Z,24.90
2022-09-25T14:52:07.825Z,24.90
2022-09-25T14:54:32.214Z,24.90
2022-09-25T14:56:53.827Z,24.90
2022-09-25T14:59:16.679Z,25.00
2022-09-25T15:01:30.472Z,25.00
2022-09-25T15:03:51.829Z,25.00
2022-09-25T15:06:16.280Z,25.10
2022-09-25T15:08:40.136Z,25.00
2022-09-25T15:10:47.317Z,25.00
2022-09-25T15:13:18.768Z,25.00
2022-09-25T15:15:25.958Z,25.00
2022-09-25T15:17:33.083Z,25.00
2022-09-25T15:19:44.716Z,25.00
2022-09-25T15:21:55.023Z,25.00
2022-09-25T15:24:18.894Z,25.00
2022-09-25T15:26:26.287Z,25.00
2022-09-25T15:28:45.857Z,25.00
2022-09-25T15:31:00.178Z,25.00
2022-09-25T15:33:07.760Z,25.00
2022-09-25T15:35:24.097Z,25.00
2022-09-25T15:37:33.737Z,25.00
2022-09-25T15:39:46.492Z,25.00
2022-09-25T15:42:08.622Z,25.00
2022-09-25T15:44:29.021Z,25.00
2022-09-25T15:46:50.121Z,25.00
2022-09-25T15:49:00.035Z,25.00
2022-09-25T15:51:23.125Z,25.00
2022-09-25T15:53:46.740Z,24.90
2022-09-25T15:56:03.185Z,24.90
2022-09-25T15:58:16.051Z,24.80
2022-09-25T16:00:41.516Z,24.80
2022-09-25T16:03:12.861Z,24.80
2022-09-25T16:05:22.602Z,24.70
2022-09-25T16:07:42.841Z,24.70
2022-09-25T16:09:52.589Z,24.70
2022-09-25T16:12:31.711Z,24.70
2022-09-25T16:14:51.592Z,24.60
2022-09-25T16:17:24.171Z,24.60
2022-09-25T16:19:35.651Z,24.60
2022-09-25T16:21:55.434Z,24.60
2022-09-25T16:24:23.352Z,24.60
2022-09-25T16:26:39.595Z,24.60
2022-09-25T16:28:53.683Z,24.60
2022-09-25T16:31:04.641Z,24.50
2022-09-25T16:33:21.002Z,24.50
2022-09-25T16:35:57.507Z,24.50
2022-09-25T16:38:30.970Z,24.50
2022-09-25T16:41:07.034Z,24.50
2022-09-25T16:43:30.441Z,24.50
2022-09-25T16:46:01.985Z,24.50
2022-09-25T16:48:37.845Z,24.50
2022-09-25T16:50:45.644Z,24.50
2022-09-25T16:53:05.988Z,24.40
2022-09-25T16:55:20.136Z,24.40
2022-09-25T16:57:28.742Z,24.40
2022-09-25T16:59:49.647Z,24.40
2022-09-25T17:01:58.139Z,24.40
2022-09-25T17:04:18.450Z,24.40
2022-09-25T17:06:27.494Z,24.40
2022-09-25T17:08:47.041Z,24.30
2022-09-25T17:11:06.256Z,24.30
2022-09-25T17:13:16.776Z,24.20
2022-09-25T17:15:30.879Z,24.20
2022-09-25T17:17:37.947Z,24.20
2022-09-25T17:19:45.100Z,24.10
2022-09-25T17:21:53.997Z,24.10
2022-09-25T17:24:15.614Z,24.20
2022-09-25T17:26:25.866Z,24.20
2022-09-25T17:28:34.393Z,24.20
2022-09-25T17:30:44.161Z,24.20
2022-09-25T17:32:52.534Z,24.20
2022-09-25T17:35:00.339Z,24.20
2022-09-25T17:37:19.692Z,24.20
2022-09-25T17:39:26.989Z,24.20
2022-09-25T17:41:37.128Z,24.30
2022-09-25T17:43:56.291Z,24.20
2022-09-25T17:46:20.108Z,24.20
2022-09-25T17:48:28.471Z,24.20
2022-09-25T17:50:36.781Z,24.30
2022-09-25T17:52:43.652Z,24.30
2022-09-25T17:54:50.737Z,24.30
2022-09-25T17:56:57.912Z,24.40
2022-09-25T17:59:06.632Z,24.30
2022-09-25T18:01:29.132Z,24.30
2022-09-25T18:03:48.338Z,24.30
2022-09-25T18:06:08.378Z,24.30
2022-09-25T18:08:15.808Z,24.20
2022-09-25T18:10:23.199Z,24.30
2022-09-25T18:12:42.363Z,24.30
2022-09-25T18:14:49.589Z,24.30
2022-09-25T18:17:10.751Z,24.30
2022-09-25T18:19:46.704Z,24.30
2022-09-25T18:22:10.474Z,24.40
2022-09-25T18:24:17.299Z,24.40
2022-09-25T18:26:36.824Z,24.40
2022-09-25T18:28:56.198Z,24.40
2022-09-25T18:31:03.132Z,24.40
2022-09-25T18:33:11.829Z,24.30
2022-09-25T18:35:31.101Z,24.30
2022-09-25T18:37:50.513Z,24.30
2022-09-25T18:39:57.592Z,24.30
2022-09-25T18:42:16.962Z,24.30
2022-09-25T18:44:24.507Z,24.30
2022-09-25T18:46:44.135Z,24.30
2022-09-25T18:49:04.974Z,24.20
2022-09-25T18:51:24.188Z,24.20
2022-09-25T18:53:31.376Z,24.20
2022-09-25T18:55:38.399Z,24.30
2022-09-25T18:57:58.435Z,24.20
2022-09-25T19:00:07.561Z,24.20
2022-09-25T19:02:22.502Z,24.20
2022-09-25T19:04:31.648Z,24.20
2022-09-25T19:06:38.581Z,24.20
2022-09-25T19:08:59.179Z,24.20
2022-09-25T19:11:19.103Z,24.10
2022-09-25T19:13:26.542Z,24.10
2022-09-25T19:15:34.486Z,24.10
2022-09-25T19:17:53.861Z,24.10
2022-09-25T19:20:15.020Z,24.10
2022-09-25T19:22:34.647Z,24.10
2022-09-25T19:24:42.999Z,24.10
2022-09-25T19:26:50.080Z,24.10
2022-09-25T19:29:09.551Z,24.10
2022-09-25T19:31:30.854Z,24.00
2022-09-25T19:33:50.481Z,24.00
2022-09-25T19:36:04.779Z,24.00
2022-09-25T19:38:24.301Z,24.00
2022-09-25T19:40:40.693Z,24.00
2022-09-25T19:43:02.272Z,24.00
2022-09-25T19:45:10.785Z,24.00
2022-09-25T19:47:29.994Z,24.00
2022-09-25T19:49:49.158Z,24.00
2022-09-25T19:52:10.117Z,24.00
2022-09-25T19:54:29.334Z,24.00
2022-09-25T19:56:37.336Z,24.00
2022-09-25T19:58:56.897Z,23.90
2022-09-25T20:01:03.834Z,24.00
2022-09-25T20:03:11.236Z,24.00
2022-09-25T20:05:18.905Z,24.00
2022-09-25T20:07:27.982Z,24.00
2022-09-25T20:09:39.572Z,23.90
2022-09-25T20:11:47.667Z,23.90
2022-09-25T20:14:08.623Z,23.90
2022-09-25T20:16:30.290Z,23.90
2022-09-25T20:18:52.271Z,23.90
2022-09-25T20:21:12.202Z,23.90
2022-09-25T20:23:33.108Z,23.90
2022-09-25T20:25:40.196Z,23.90
2022-09-25T20:27:50.338Z,24.00
2022-09-25T20:30:10.477Z,24.00
2022-09-25T20:32:17.813Z,24.00
2022-09-25T20:34:36.969Z,24.00
2022-09-25T20:36:56.695Z,24.00
2022-09-25T20:39:21.111Z,24.00
2022-09-25T20:41:29.335Z,24.10
2022-09-25T20:43:36.684Z,24.10
2022-09-25T20:46:02.022Z,24.10
2022-09-25T20:48:22.838Z,24.10
2022-09-25T20:50:42.044Z,24.10
2022-09-25T20:53:01.316Z,24.10
2022-09-25T20:55:10.641Z,24.10
2022-09-25T20:57:33.540Z,24.10
2022-09-25T20:59:40.832Z,24.00
2022-09-25T21:02:00.226Z,24.00
2022-09-25T21:04:10.088Z,24.00
2022-09-25T21:06:18.463Z,24.00
2022-09-25T21:08:26.139Z,24.00
2022-09-25T21:10:46.889Z,24.00
2022-09-25T21:12:54.083Z,24.10
2022-09-25T21:15:01.099Z,24.10
2022-09-25T21:17:08.448Z,24.10
2022-09-25T21:19:28.416Z,24.10
2022-09-25T21:21:37.393Z,24.10
2022-09-25T21:23:45.493Z,24.10
2022-09-25T21:25:54.097Z,24.10
2022-09-25T21:28:13.581Z,24.10
2022-09-25T21:30:20.567Z,24.10
2022-09-25T21:32:27.637Z,24.10
2022-09-25T21:34:46.799Z,24.10
2022-09-25T21:37:06.321Z,24.10
2022-09-25T21:39:25.431Z,24.10
2022-09-25T21:41:46.439Z,24.10
2022-09-25T21:43:57.205Z,24.10
2022-09-25T21:46:05.494Z,24.10
2022-09-25T21:48:13.047Z,24.10
2022-09-25T21:50:20.084Z,24.10
2022-09-25T21:52:41.541Z,24.00
2022-09-25T21:55:00.658Z,24.00
2022-09-25T21:57:09.476Z,24.00
2022-09-25T21:59:28.747Z,24.00
2022-09-25T22:01:37.662Z,24.00
2022-09-25T22:03:57.962Z,24.00
2022-09-25T22:06:06.161Z,24.00
2022-09-25T22:08:25.269Z,24.00
2022-09-25T22:10:46.476Z,24.00
2022-09-25T22:13:07.386Z,24.00
2022-09-25T22:15:27.874Z,24.00
2022-09-25T22:17:46.939Z,24.10
2022-09-25T22:20:06.565Z,24.10
2022-09-25T22:22:26.140Z,24.10
2022-09-25T22:24:33.108Z,24.10
2022-09-25T22:26:42.037Z,24.10
2022-09-25T22:29:02.862Z,24.10
2022-09-25T22:31:24.902Z,24.00
2022-09-25T22:33:44.584Z,24.00
2022-09-25T22:36:04.977Z,24.00
2022-09-25T22:38:24.292Z,24.00
2022-09-25T22:40:44.031Z,24.00
2022-09-25T22:43:05.791Z,24.00
2022-09-25T22:45:26.598Z,24.00
2022-09-25T22:47:45.911Z,24.00
2022-09-25T22:50:05.382Z,24.10
2022-09-25T22:52:25.011Z,24.00
2022-09-25T22:54:31.981Z,24.00
2022-09-25T22:56:51.140Z,24.00
2022-09-25T22:59:12.148Z,24.00
2022-09-25T23:01:35.886Z,24.00
2022-09-25T23:03:42.796Z,24.00
2022-09-25T23:06:04.518Z,24.00
2022-09-25T23:08:23.778Z,24.00
2022-09-25T23:11:06.051Z,24.00
2022-09-25T23:13:10.757Z,24.00
2022-09-25T23:15:17.794Z,24.00
2022-09-25T23:17:27.528Z,24.00
2022-09-25T23:19:48.684Z,24.00
2022-09-25T23:21:57.509Z,24.00
2022-09-25T23:24:06.326Z,24.00
2022-09-25T23:26:25.796Z,24.10
2022-09-25T23:28:45.526Z,24.10
2022-09-25T23:30:52.721Z,24.10
2022-09-25T23:33:01.525Z,24.10
2022-09-25T23:35:21.100Z,24.00
2022-09-25T23:37:28.382Z,24.10
2022-09-25T23:39:35.509Z,24.00
2022-09-25T23:41:54.828Z,24.10
2022-09-25T23:44:15.331Z,24.10
2022-09-25T23:46:36.482Z,24.10
2022-09-25T23:48:57.748Z,24.10
2022-09-25T23:51:04.798Z,24.20
2022-09-25T23:53:11.794Z,24.20
2022-09-25T23:55:31.365Z,24.20
2022-09-25T23:57:50.383Z,24.20
2022-09-25T23:59:57.303Z,24.20
